Time;durP1;ratioP1;P1;durP2;ratioP2;P2;SDS_P1;SDS_P2;PMS_P1;PMS_P2;Temp;Humidity;BMP_temperature;BMP_pressure;BME280_temperature;BME280_humidity;BME280_pressure;Samples;Min_cycle;Max_cycle;Signal;HPM_P1;HPM_P2
2023/04/19 00:01:00;;;;;;;17.47;9.87;;;;;;;-145.69;100.00;52537.47;5075230;28;20201;-79
2023/04/19 00:03:29;;;;;;;18.07;9.33;;;;;;;-145.69;100.00;52549.34;5075779;28;20199;-79
2023/04/19 00:05:57;;;;;;;17.43;9.47;;;;;;;-145.69;100.00;52541.44;5075608;28;20203;-79
2023/04/19 00:08:24;;;;;;;15.50;9.07;;;;;;;-145.69;100.00;52517.66;5074927;28;20648;-79
2023/04/19 00:10:51;;;;;;;16.50;9.93;;;;;;;-145.69;100.00;52531.53;5075717;28;20199;-79
2023/04/19 00:13:17;;;;;;;15.93;9.63;;;;;;;-145.69;100.00;52505.78;5075524;28;20199;-79
2023/04/19 00:15:43;;;;;;;20.30;10.40;;;;;;;-145.69;100.00;52539.44;5075904;28;20550;-78
2023/04/19 00:18:10;;;;;;;14.17;9.13;;;;;;;-145.69;100.00;52507.75;5075306;28;20739;-79
2023/04/19 00:20:38;;;;;;;17.13;9.17;;;;;;;-145.69;100.00;52527.56;5068317;28;20282;-78
2023/04/19 00:23:05;;;;;;;19.77;9.53;;;;;;;-145.69;100.00;52515.69;5070642;28;20217;-78
2023/04/19 00:25:33;;;;;;;17.67;10.20;;;;;;;-145.69;100.00;52519.63;5075158;28;20209;-79
2023/04/19 00:27:59;;;;;;;18.70;9.87;;;;;;;-145.69;100.00;52527.56;5075186;28;20209;-79
2023/04/19 00:30:26;;;;;;;21.67;10.43;;;;;;;-145.69;100.00;52527.56;5075151;28;20202;-79
2023/04/19 00:32:52;;;;;;;16.73;9.73;;;;;;;-145.69;100.00;52511.72;5075306;28;20203;-79
2023/04/19 00:35:19;;;;;;;18.93;10.03;;;;;;;-145.69;100.00;52484.00;5075061;28;20205;-80
2023/04/19 00:37:47;;;;;;;17.87;9.47;;;;;;;-145.69;100.00;52543.41;5075119;28;20230;-79
2023/04/19 00:40:13;;;;;;;18.80;10.33;;;;;;;-145.69;100.00;52497.84;5075014;28;20209;-79
2023/04/19 00:42:40;;;;;;;16.47;9.83;;;;;;;-145.69;100.00;52537.47;5074342;28;20194;-78
2023/04/19 00:45:07;;;;;;;18.43;10.50;;;;;;;-145.69;100.00;52523.59;5074885;28;20226;-79
2023/04/19 00:47:34;;;;;;;17.87;9.90;;;;;;;-145.69;100.00;52531.53;5074654;28;20226;-78
2023/04/19 00:50:01;;;;;;;19.97;10.63;;;;;;;-145.69;100.00;52527.56;5074716;28;20199;-80
2023/04/19 00:52:28;;;;;;;18.17;9.97;;;;;;;-145.69;100.00;52535.47;5074737;28;20553;-79
2023/04/19 00:54:58;;;;;;;16.27;9.53;;;;;;;-145.69;100.00;52519.63;5074820;28;20202;-79
2023/04/19 00:57:25;;;;;;;17.23;9.23;;;;;;;-145.69;100.00;52499.84;5074672;28;20269;-79
2023/04/19 00:59:51;;;;;;;20.10;10.67;;;;;;;-145.69;100.00;52521.63;5074621;28;20198;-79
2023/04/19 01:02:20;;;;;;;23.40;11.07;;;;;;;-145.69;100.00;52507.75;5074470;28;20226;-79
2023/04/19 01:04:47;;;;;;;17.20;9.43;;;;;;;-145.69;100.00;52513.69;5074570;28;20207;-80
2023/04/19 01:07:13;;;;;;;18.30;10.83;;;;;;;-145.69;100.00;52535.47;5074697;28;20202;-80
2023/04/19 01:09:41;;;;;;;17.53;9.87;;;;;;;-145.69;100.00;52531.53;5074572;28;20199;-80
2023/04/19 01:12:09;;;;;;;18.80;10.53;;;;;;;-145.69;100.00;52535.47;5074023;28;20618;-79
2023/04/19 01:14:35;;;;;;;21.90;10.43;;;;;;;-145.69;100.00;52529.53;5074268;28;20202;-79
2023/04/19 01:17:01;;;;;;;20.57;11.47;;;;;;;-145.69;100.00;52484.00;5074061;28;20227;-79
2023/04/19 01:19:28;;;;;;;20.90;11.20;;;;;;;-145.69;100.00;52515.69;5074305;28;20199;-79
2023/04/19 01:21:57;;;;;;;19.07;11.07;;;;;;;-145.69;100.00;52543.41;5074173;28;20272;-79
2023/04/19 01:24:24;;;;;;;21.20;11.47;;;;;;;-145.69;100.00;52543.41;5074045;28;20294;-80
2023/04/19 01:26:51;;;;;;;20.27;11.90;;;;;;;-145.69;100.00;52527.56;5074041;28;20210;-80
2023/04/19 01:29:19;;;;;;;19.93;11.20;;;;;;;-145.69;100.00;52543.41;5074175;28;20205;-79
2023/04/19 01:31:50;;;;;;;20.93;11.57;;;;;;;-145.69;100.00;52539.44;5073916;28;20205;-79
2023/04/19 01:34:16;;;;;;;20.73;11.43;;;;;;;-145.69;100.00;52489.94;5074147;28;20209;-79
2023/04/19 01:36:43;;;;;;;20.00;11.67;;;;;;;-145.69;100.00;52519.63;5073901;28;20237;-79
2023/04/19 01:39:10;;;;;;;18.93;11.33;;;;;;;-145.69;100.00;52527.56;5073740;28;20603;-79
2023/04/19 01:41:38;;;;;;;20.10;11.33;;;;;;;-145.69;100.00;52511.72;5073333;28;20222;-79
2023/04/19 01:44:04;;;;;;;21.73;11.73;;;;;;;-145.69;100.00;52571.13;5072818;28;20195;-79
2023/04/19 01:46:31;;;;;;;23.90;11.37;;;;;;;-145.69;100.00;52517.66;5073853;28;20222;-79
2023/04/19 01:48:57;;;;;;;23.77;12.17;;;;;;;-145.69;100.00;52553.31;5073818;28;20195;-79
2023/04/19 01:51:24;;;;;;;20.50;11.33;;;;;;;-145.69;100.00;52523.59;5073410;28;20202;-79
2023/04/19 01:53:52;;;;;;;21.77;12.17;;;;;;;-145.69;100.00;52521.63;5072853;28;20225;-80
2023/04/19 01:56:19;;;;;;;21.20;12.00;;;;;;;-145.69;100.00;52539.44;5073314;28;20202;-78
2023/04/19 01:58:47;;;;;;;16.93;10.10;;;;;;;-145.69;100.00;52515.69;5073227;28;20234;-80
2023/04/19 02:01:13;;;;;;;16.50;10.17;;;;;;;-145.69;100.00;52499.84;5073586;28;20195;-79
2023/04/19 02:03:40;;;;;;;21.37;11.20;;;;;;;-145.69;100.00;52499.84;5073573;28;20206;-79
2023/04/19 02:06:10;;;;;;;20.23;11.90;;;;;;;-145.69;100.00;52535.47;5073350;28;20210;-79
2023/04/19 02:08:37;;;;;;;21.63;12.07;;;;;;;-145.69;100.00;52543.41;5073359;28;20199;-79
2023/04/19 02:11:06;;;;;;;18.97;11.43;;;;;;;-145.69;100.00;52543.41;5072972;28;20206;-79
2023/04/19 02:13:33;;;;;;;20.73;11.27;;;;;;;-145.69;100.00;52545.38;5073114;28;20195;-79
2023/04/19 02:16:01;;;;;;;20.20;10.67;;;;;;;-145.69;100.00;52549.34;5073487;28;20211;-79
2023/04/19 02:18:28;;;;;;;21.83;11.67;;;;;;;-145.69;100.00;52521.63;5073238;28;20652;-79
2023/04/19 02:20:55;;;;;;;19.40;11.03;;;;;;;-145.69;100.00;52545.38;5073175;28;20198;-79
2023/04/19 02:23:21;;;;;;;22.67;11.03;;;;;;;-145.69;100.00;52527.56;5072854;28;20653;-79
2023/04/19 02:25:48;;;;;;;16.53;9.30;;;;;;;-145.69;100.00;52519.63;5072527;28;20198;-79
2023/04/19 02:28:14;;;;;;;19.13;11.17;;;;;;;-145.69;100.00;52519.63;5069640;28;20210;-79
2023/04/19 02:30:40;;;;;;;20.87;10.27;;;;;;;-145.69;100.00;52503.81;5072895;28;20191;-79
2023/04/19 02:33:08;;;;;;;20.17;11.27;;;;;;;-145.69;100.00;52545.38;5073051;28;20209;-79
2023/04/19 02:35:35;;;;;;;17.07;10.63;;;;;;;-145.69;100.00;52513.69;5072893;28;20547;-79
2023/04/19 02:38:03;;;;;;;18.90;10.63;;;;;;;-145.69;100.00;52495.88;5072931;28;20234;-79
2023/04/19 02:40:29;;;;;;;18.43;10.40;;;;;;;-145.69;100.00;52551.31;5072902;28;20199;-79
2023/04/19 02:42:56;;;;;;;17.47;10.07;;;;;;;-145.69;100.00;52527.56;5073157;28;20214;-79
2023/04/19 02:45:22;;;;;;;18.50;9.80;;;;;;;-145.69;100.00;52545.38;5072731;28;20257;-78
2023/04/19 02:47:49;;;;;;;16.73;10.70;;;;;;;-145.69;100.00;52573.13;5072669;28;20252;-78
2023/04/19 02:50:17;;;;;;;16.97;9.40;;;;;;;-145.69;100.00;52511.72;5072809;28;20669;-78
2023/04/19 02:52:43;;;;;;;15.53;9.07;;;;;;;-145.69;100.00;52539.44;5072595;28;20233;-78
2023/04/19 02:55:10;;;;;;;17.47;9.87;;;;;;;-145.69;100.00;52543.41;5072931;28;20209;-79
2023/04/19 02:57:36;;;;;;;21.13;9.83;;;;;;;-145.69;100.00;52569.16;5072917;28;20267;-79
2023/04/19 03:00:04;;;;;;;17.70;10.17;;;;;;;-145.69;100.00;52543.41;5072636;28;20653;-79
2023/04/19 03:02:31;;;;;;;22.63;10.67;;;;;;;-145.69;100.00;52563.22;5072870;28;20657;-79
2023/04/19 03:04:57;;;;;;;18.03;10.57;;;;;;;-145.69;100.00;52559.25;5073535;28;20198;-79
2023/04/19 03:07:26;;;;;;;18.70;8.93;;;;;;;-145.69;100.00;52543.41;5076517;28;20612;-79
2023/04/19 03:09:52;;;;;;;17.83;9.50;;;;;;;-145.69;100.00;52537.47;5076642;28;20195;-80
2023/04/19 03:12:18;;;;;;;15.93;8.90;;;;;;;-145.69;100.00;52571.13;5076709;28;20634;-79
2023/04/19 03:14:45;;;;;;;16.90;9.57;;;;;;;-145.69;100.00;52527.56;5076713;28;20209;-80
2023/04/19 03:17:11;;;;;;;21.00;10.60;;;;;;;-145.69;100.00;52571.13;5076708;28;20202;-79
2023/04/19 03:19:38;;;;;;;14.10;8.67;;;;;;;-145.69;100.00;52509.75;5076377;28;20209;-79
2023/04/19 03:22:04;;;;;;;17.07;9.80;;;;;;;-145.69;100.00;52521.63;5076115;28;20190;-80
2023/04/19 03:24:32;;;;;;;15.97;8.70;;;;;;;-145.69;100.00;52559.25;5076125;28;20202;-79
2023/04/19 03:26:59;;;;;;;14.67;8.23;;;;;;;-145.69;100.00;52563.22;5076670;28;20837;-79
2023/04/19 03:29:26;;;;;;;15.07;9.57;;;;;;;-145.69;100.00;52537.47;5076351;28;20257;-79
2023/04/19 03:31:52;;;;;;;18.00;8.83;;;;;;;-145.69;100.00;52539.44;5076258;28;20203;-79
2023/04/19 03:34:19;;;;;;;15.67;8.83;;;;;;;-145.69;100.00;52563.22;5075853;28;20198;-79
2023/04/19 03:36:45;;;;;;;13.30;8.73;;;;;;;-145.69;100.00;52547.38;5076103;28;20202;-79
2023/04/19 03:39:12;;;;;;;15.63;9.53;;;;;;;-145.69;100.00;52515.69;5076003;28;20214;-79
2023/04/19 03:41:40;;;;;;;13.97;8.37;;;;;;;-145.69;100.00;52537.47;5076267;28;20222;-79
2023/04/19 03:44:07;;;;;;;12.93;7.80;;;;;;;-145.69;100.00;52523.59;5075777;28;20226;-79
2023/04/19 03:46:33;;;;;;;17.73;8.87;;;;;;;-145.69;100.00;52535.47;5076139;28;20202;-79
2023/04/19 03:49:00;;;;;;;16.60;9.70;;;;;;;-145.69;100.00;52543.41;5075779;28;20199;-79
2023/04/19 03:51:26;;;;;;;16.03;9.83;;;;;;;-145.69;100.00;52507.75;5075852;28;20213;-79
2023/04/19 03:53:53;;;;;;;14.90;8.43;;;;;;;-145.69;100.00;52583.00;5075959;28;20195;-79
2023/04/19 03:56:19;;;;;;;14.97;8.97;;;;;;;-145.69;100.00;52581.03;5075247;28;20199;-79
2023/04/19 03:58:48;;;;;;;15.50;8.43;;;;;;;-145.69;100.00;52547.38;5063589;28;20230;-80
2023/04/19 04:01:18;;;;;;;13.97;7.47;;;;;;;-145.69;100.00;52555.28;5073970;28;20717;-79
2023/04/19 04:03:44;;;;;;;17.07;10.10;;;;;;;-145.69;100.00;52525.59;5075716;28;20304;-79
2023/04/19 04:06:11;;;;;;;14.67;9.20;;;;;;;-145.69;100.00;52525.59;5075750;28;20203;-79
2023/04/19 04:08:37;;;;;;;15.40;8.97;;;;;;;-145.69;100.00;52547.38;5075590;28;20210;-79
2023/04/19 04:11:04;;;;;;;16.07;8.10;;;;;;;-145.69;100.00;52539.44;5075648;28;20569;-79
2023/04/19 04:13:30;;;;;;;15.17;8.63;;;;;;;-145.69;100.00;52557.28;5075241;28;20199;-79
2023/04/19 04:15:58;;;;;;;14.47;8.23;;;;;;;-145.69;100.00;52491.91;5075366;28;20207;-79
2023/04/19 04:18:25;;;;;;;13.53;8.03;;;;;;;-145.69;100.00;52535.47;5074379;28;20245;-79
2023/04/19 04:20:52;;;;;;;15.37;9.17;;;;;;;-145.69;100.00;52579.06;5075457;28;20199;-78
2023/04/19 04:23:20;;;;;;;15.00;8.50;;;;;;;-145.69;100.00;52553.31;5057929;28;20203;-79
2023/04/19 04:25:46;;;;;;;16.30;8.37;;;;;;;-145.69;100.00;52535.47;5055221;28;20203;-79
2023/04/19 04:28:13;;;;;;;14.33;8.17;;;;;;;-145.69;100.00;52515.69;5056387;28;20196;-79
2023/04/19 04:30:40;;;;;;;17.03;8.90;;;;;;;-145.69;100.00;52529.53;5074514;28;20661;-80
2023/04/19 04:33:10;;;;;;;13.70;7.90;;;;;;;-145.69;100.00;52543.41;5074304;28;20546;-80
2023/04/19 04:35:37;;;;;;;12.23;7.27;;;;;;;-145.69;100.00;52567.16;5074896;28;20192;-79
2023/04/19 04:38:04;;;;;;;12.10;7.10;;;;;;;-145.69;100.00;52535.47;5074947;28;20223;-80
2023/04/19 04:40:31;;;;;;;12.20;7.23;;;;;;;-145.69;100.00;52571.13;5074882;28;20203;-80
2023/04/19 04:42:59;;;;;;;12.83;7.30;;;;;;;-145.69;100.00;52559.25;5075107;28;20199;-79
2023/04/19 04:45:27;;;;;;;13.30;8.07;;;;;;;-145.69;100.00;52517.66;5074653;28;20661;-79
2023/04/19 04:47:54;;;;;;;13.07;7.73;;;;;;;-145.69;100.00;52539.44;5074658;28;20195;-79
2023/04/19 04:50:22;;;;;;;12.17;6.93;;;;;;;-145.69;100.00;52515.69;5074838;28;20202;-79
2023/04/19 04:52:48;;;;;;;12.10;6.50;;;;;;;-145.69;100.00;52547.38;5074925;28;20202;-79
2023/04/19 04:55:15;;;;;;;15.43;8.37;;;;;;;-145.69;100.00;52547.38;5074720;28;20589;-79
2023/04/19 04:57:41;;;;;;;13.27;7.50;;;;;;;-145.69;100.00;52539.44;5074012;28;20662;-79
2023/04/19 05:00:10;;;;;;;15.80;8.70;;;;;;;-145.69;100.00;52557.28;5074116;28;20199;-79
2023/04/19 05:02:36;;;;;;;16.53;9.23;;;;;;;-145.69;100.00;52543.41;5074732;28;20268;-79
2023/04/19 05:05:03;;;;;;;11.77;7.50;;;;;;;-145.69;100.00;52551.31;5074486;28;20195;-79
2023/04/19 05:07:30;;;;;;;16.60;8.90;;;;;;;-145.69;100.00;52503.81;5074052;28;20230;-79
2023/04/19 05:09:57;;;;;;;14.33;8.80;;;;;;;-145.69;100.00;52541.44;5074373;28;20206;-79
2023/04/19 05:12:23;;;;;;;15.57;8.63;;;;;;;-145.69;100.00;52557.28;5074106;28;20198;-79
2023/04/19 05:14:50;;;;;;;16.63;9.40;;;;;;;-145.69;100.00;52575.09;5074803;28;20202;-78
2023/04/19 05:17:16;;;;;;;14.30;8.53;;;;;;;-145.69;100.00;52567.16;5074453;28;20206;-79
2023/04/19 05:19:43;;;;;;;19.47;9.13;;;;;;;-145.69;100.00;52555.28;5074007;28;20234;-79
2023/04/19 05:22:10;;;;;;;16.10;8.57;;;;;;;-145.69;100.00;52511.72;5074362;28;20198;-79
2023/04/19 05:24:37;;;;;;;19.00;10.03;;;;;;;-145.69;100.00;52525.59;5074297;28;20199;-80
2023/04/19 05:27:04;;;;;;;22.33;10.67;;;;;;;-145.69;100.00;52537.47;5074224;28;20199;-79
2023/04/19 05:29:31;;;;;;;19.67;10.87;;;;;;;-145.69;100.00;52529.53;5073797;28;20199;-79
2023/04/19 05:31:58;;;;;;;19.43;9.90;;;;;;;-145.69;100.00;52507.75;5074118;28;20201;-79
2023/04/19 05:34:24;;;;;;;21.60;10.60;;;;;;;-145.69;100.00;52537.47;5073932;28;20218;-79
2023/04/19 05:36:51;;;;;;;17.17;9.37;;;;;;;-145.69;100.00;52509.75;5073361;28;20195;-79
2023/04/19 05:39:17;;;;;;;15.60;8.60;;;;;;;-145.69;100.00;52551.31;5073700;28;20227;-79
2023/04/19 05:41:45;;;;;;;17.53;10.00;;;;;;;-145.69;100.00;52519.63;5073453;28;20194;-79
2023/04/19 05:44:11;;;;;;;21.00;10.23;;;;;;;-145.69;100.00;52531.53;5073644;28;20230;-79
2023/04/19 05:46:38;;;;;;;16.73;9.57;;;;;;;-145.69;100.00;52523.59;5073987;28;20202;-79
2023/04/19 05:49:04;;;;;;;18.00;9.67;;;;;;;-145.69;100.00;52521.63;5073694;28;20203;-79
2023/04/19 05:51:31;;;;;;;14.40;8.43;;;;;;;-145.69;100.00;52539.44;5073623;28;20195;-79
2023/04/19 05:53:57;;;;;;;19.10;10.27;;;;;;;-145.69;100.00;52505.78;5073438;28;20197;-79
2023/04/19 05:56:24;;;;;;;16.20;9.53;;;;;;;-145.69;100.00;52507.75;5073532;28;20202;-79
2023/04/19 05:58:51;;;;;;;12.93;8.10;;;;;;;-145.69;100.00;52527.56;5073332;28;20218;-79
2023/04/19 06:01:18;;;;;;;15.30;8.17;;;;;;;-145.69;100.00;52507.75;5073591;28;20210;-79
2023/04/19 06:03:44;;;;;;;13.73;8.37;;;;;;;-145.69;100.00;52503.81;5073389;28;20354;-79
2023/04/19 06:06:11;;;;;;;14.20;8.67;;;;;;;-145.69;100.00;52513.69;5073501;28;20210;-79
2023/04/19 06:08:37;;;;;;;16.20;9.77;;;;;;;-145.69;100.00;52501.81;5073046;28;20195;-78
2023/04/19 06:11:04;;;;;;;20.30;10.77;;;;;;;-145.69;100.00;52499.84;5073202;28;20195;-79
2023/04/19 06:13:30;;;;;;;21.80;11.83;;;;;;;-145.69;100.00;52527.56;5073316;28;20205;-79
2023/04/19 06:15:58;;;;;;;17.00;10.50;;;;;;;-145.69;100.00;52511.72;5073317;28;20205;-80
2023/04/19 06:18:25;;;;;;;16.13;8.83;;;;;;;-145.69;100.00;52553.31;5073324;28;20222;-79
2023/04/19 06:20:53;;;;;;;17.37;9.33;;;;;;;-145.69;100.00;52535.47;5073377;28;20233;-80
2023/04/19 06:23:19;;;;;;;14.83;8.53;;;;;;;-145.69;100.00;52519.63;5072502;28;20554;-80
2023/04/19 06:25:47;;;;;;;15.23;8.63;;;;;;;-145.69;100.00;52541.44;5053379;28;20200;-80
2023/04/19 06:28:13;;;;;;;14.47;7.87;;;;;;;-145.69;100.00;52527.56;5055091;28;20723;-80
2023/04/19 06:30:40;;;;;;;15.40;8.90;;;;;;;-145.69;100.00;52509.75;5072634;28;20557;-80
2023/04/19 06:33:08;;;;;;;15.50;8.17;;;;;;;-145.69;100.00;52553.31;5072759;28;20199;-81
2023/04/19 06:35:34;;;;;;;18.17;9.63;;;;;;;-145.69;100.00;52499.84;5072189;28;20206;-80
2023/04/19 06:38:01;;;;;;;19.23;9.67;;;;;;;-145.69;100.00;52499.84;5071739;28;20195;-80
2023/04/19 06:40:28;;;;;;;21.67;9.57;;;;;;;-145.69;100.00;52519.63;5072491;28;20207;-80
2023/04/19 06:42:54;;;;;;;15.47;9.57;;;;;;;-145.69;100.00;52527.56;5072509;28;20195;-80
2023/04/19 06:45:21;;;;;;;16.80;10.17;;;;;;;-145.69;100.00;52523.59;5072612;28;20226;-80
2023/04/19 06:47:47;;;;;;;19.03;10.00;;;;;;;-145.69;100.00;52525.59;5072470;28;20202;-80
2023/04/19 06:50:16;;;;;;;22.07;11.70;;;;;;;-145.69;100.00;52525.59;5072732;28;20212;-79
2023/04/19 06:52:42;;;;;;;21.17;10.87;;;;;;;-145.69;100.00;52517.66;5072378;28;20213;-80
2023/04/19 06:55:09;;;;;;;21.63;11.47;;;;;;;-145.69;100.00;52531.53;5072615;28;20199;-80
2023/04/19 06:57:36;;;;;;;17.67;9.97;;;;;;;-145.69;100.00;52519.63;5072550;28;20199;-80
2023/04/19 07:00:03;;;;;;;22.80;12.00;;;;;;;-145.69;100.00;52487.97;5072318;28;20233;-79
2023/04/19 07:02:29;;;;;;;23.37;11.53;;;;;;;-145.69;100.00;52559.25;5072320;28;20221;-80
2023/04/19 07:04:56;;;;;;;25.53;11.57;;;;;;;-145.69;100.00;52563.22;5072077;28;20634;-79
2023/04/19 07:07:23;;;;;;;30.10;12.70;;;;;;;-145.69;100.00;52521.63;5072939;28;20202;-79
2023/04/19 07:09:50;;;;;;;25.80;13.63;;;;;;;-145.69;100.00;52531.53;5072253;28;20684;-80
2023/04/19 07:12:16;;;;;;;23.03;11.43;;;;;;;-145.69;100.00;52529.53;5072497;28;20191;-79
2023/04/19 07:14:43;;;;;;;25.67;12.87;;;;;;;-145.69;100.00;52509.75;5072599;28;20213;-79
2023/04/19 07:17:09;;;;;;;23.60;13.00;;;;;;;-145.69;100.00;52523.59;5071849;28;20194;-79
2023/04/19 07:19:36;;;;;;;24.63;12.37;;;;;;;-145.69;100.00;52539.44;5072027;28;20238;-80
2023/04/19 07:22:03;;;;;;;24.37;12.50;;;;;;;-145.69;100.00;52523.59;5072102;28;20661;-79
2023/04/19 07:24:30;;;;;;;18.37;10.60;;;;;;;-145.69;100.00;52495.88;5072066;28;20203;-80
2023/04/19 07:26:57;;;;;;;21.80;12.27;;;;;;;-145.69;100.00;52503.81;5072035;28;20573;-79
2023/04/19 07:29:23;;;;;;;20.53;9.87;;;;;;;-145.69;100.00;52551.31;5072047;28;20243;-78
2023/04/19 07:31:50;;;;;;;17.83;10.37;;;;;;;-145.69;100.00;52509.75;5071487;28;20661;-80
2023/04/19 07:34:17;;;;;;;18.90;10.00;;;;;;;-145.69;100.00;52487.97;5071944;28;20206;-79
2023/04/19 07:36:43;;;;;;;15.10;9.13;;;;;;;-145.69;100.00;52547.38;5072329;28;20202;-78
2023/04/19 07:39:10;;;;;;;16.77;9.17;;;;;;;-145.69;100.00;52503.81;5072458;28;20231;-79
2023/04/19 07:41:37;;;;;;;17.83;8.73;;;;;;;-145.69;100.00;52480.03;5072327;28;20201;-79
2023/04/19 07:44:04;;;;;;;16.40;8.27;;;;;;;-145.69;100.00;52515.69;5072179;28;20225;-79
2023/04/19 07:46:30;;;;;;;16.93;9.57;;;;;;;-145.69;100.00;52507.75;5072317;28;20202;-78
2023/04/19 07:48:57;;;;;;;16.20;9.07;;;;;;;-145.69;100.00;52493.91;5072220;28;20206;-78
2023/04/19 07:51:24;;;;;;;15.80;8.57;;;;;;;-145.69;100.00;52507.75;5072157;28;20195;-79
2023/04/19 07:53:50;;;;;;;12.77;7.63;;;;;;;-145.69;100.00;52491.91;5075750;28;20252;-79
2023/04/19 07:56:18;;;;;;;14.77;7.77;;;;;;;-145.69;100.00;52487.97;5075685;28;20727;-79
2023/04/19 07:58:46;;;;;;;18.40;7.77;;;;;;;-145.69;100.00;52472.13;5075223;28;20608;-79
2023/04/19 08:01:12;;;;;;;12.63;8.23;;;;;;;-145.69;100.00;52491.91;5074982;28;20944;-78
2023/04/19 08:03:39;;;;;;;13.43;8.13;;;;;;;-145.69;100.00;52489.94;5075729;28;20206;-78
2023/04/19 08:06:07;;;;;;;14.32;7.88;;;;;;;-145.69;100.00;52491.91;5075909;28;20311;-78
2023/04/19 08:08:33;;;;;;;13.37;6.87;;;;;;;-145.69;100.00;52480.03;5075776;28;20238;-78
2023/04/19 08:11:01;;;;;;;11.13;6.57;;;;;;;-145.69;100.00;52487.97;5075570;28;20232;-79
2023/04/19 08:13:27;;;;;;;11.70;6.47;;;;;;;-145.69;100.00;52484.00;5075244;28;20203;-79
2023/04/19 08:15:55;;;;;;;9.80;5.63;;;;;;;-145.69;100.00;52474.09;5075398;28;20596;-78
2023/04/19 08:18:21;;;;;;;9.45;6.32;;;;;;;-145.69;100.00;52491.91;5075591;28;20199;-77
2023/04/19 08:20:48;;;;;;;10.68;5.88;;;;;;;-145.69;100.00;52487.97;5074996;28;20558;-77
2023/04/19 08:23:15;;;;;;;10.07;6.00;;;;;;;-145.69;100.00;52509.75;5075465;28;20272;-77
2023/04/19 08:25:41;;;;;;;9.32;6.13;;;;;;;-145.69;100.00;52503.81;5075365;28;20201;-78
2023/04/19 08:28:08;;;;;;;10.82;5.70;;;;;;;-145.69;100.00;52464.19;5075010;28;20202;-78
2023/04/19 08:30:34;;;;;;;15.38;7.95;;;;;;;-145.69;100.00;52484.00;5075267;28;20198;-78
2023/04/19 08:33:02;;;;;;;21.83;11.20;;;;;;;-145.69;100.00;52515.69;5071661;28;20195;-77
2023/04/19 08:35:29;;;;;;;17.33;10.13;;;;;;;-145.69;100.00;52450.31;5055172;28;20206;-77
2023/04/19 08:37:55;;;;;;;12.38;7.35;;;;;;;-145.69;100.00;52458.25;5055197;28;20203;-78
2023/04/19 08:40:22;;;;;;;13.32;6.60;;;;;;;-145.69;100.00;52454.28;5054883;28;20230;-78
2023/04/19 08:42:49;;;;;;;15.43;8.43;;;;;;;-145.69;100.00;52485.97;5054958;28;20200;-79
2023/04/19 08:45:16;;;;;;;16.40;9.68;;;;;;;-145.69;100.00;52495.88;5054744;28;20281;-79
2023/04/19 08:47:44;;;;;;;15.45;8.90;;;;;;;-145.69;100.00;52499.84;5071781;28;20205;-79
2023/04/19 08:50:12;;;;;;;17.58;10.02;;;;;;;-145.69;100.00;52458.25;5073450;28;20218;-78
2023/04/19 08:52:39;;;;;;;16.23;9.02;;;;;;;-145.69;100.00;52450.31;5074427;28;20558;-79
2023/04/19 08:55:07;;;;;;;17.65;9.65;;;;;;;-145.69;100.00;52484.00;5074327;28;20191;-81
2023/04/19 08:57:35;;;;;;;19.20;10.60;;;;;;;-145.69;100.00;52466.16;5074517;28;20211;-79
2023/04/19 09:00:05;;;;;;;18.20;9.57;;;;;;;-145.69;100.00;52478.06;5074391;28;20227;-79
2023/04/19 09:02:44;;;;;;;13.20;8.40;;;;;;;-145.69;100.00;52474.09;5074294;28;20634;-79
2023/04/19 09:05:13;;;;;;;14.68;8.05;;;;;;;-145.69;100.00;52468.16;5074480;28;20195;-79
2023/04/19 09:07:39;;;;;;;17.65;7.70;;;;;;;-145.69;100.00;52408.75;5074485;28;20670;-80
2023/04/19 09:10:08;;;;;;;12.77;7.93;;;;;;;-145.69;100.00;52460.22;5074250;28;20298;-80
2023/04/19 09:12:35;;;;;;;15.82;8.63;;;;;;;-145.69;100.00;52436.47;5074999;28;20201;-83
2023/04/19 09:15:03;;;;;;;17.10;10.20;;;;;;;-145.69;100.00;52462.22;5074296;28;20249;-79
2023/04/19 09:17:30;;;;;;;20.20;10.88;;;;;;;-145.69;100.00;52487.97;5074213;28;20654;-80
2023/04/19 09:19:57;;;;;;;16.98;9.77;;;;;;;-145.69;100.00;52444.38;5073521;28;20590;-79
2023/04/19 09:22:26;;;;;;;14.50;8.40;;;;;;;-145.69;100.00;52480.03;5074131;28;20198;-76
2023/04/19 09:24:53;;;;;;;15.00;8.68;;;;;;;-145.69;100.00;52468.16;5074008;28;20611;-78
2023/04/19 09:27:29;;;;;;;16.88;9.35;;;;;;;-145.69;100.00;52470.13;5073992;28;20198;-78
2023/04/19 09:29:56;;;;;;;18.50;10.23;;;;;;;-145.69;100.00;52464.19;5073938;28;20203;-78
2023/04/19 09:32:22;;;;;;;14.20;8.50;;;;;;;-145.69;100.00;52487.97;5073959;28;20195;-80
2023/04/19 09:34:53;;;;;;;15.48;8.63;;;;;;;-145.69;100.00;52474.09;5073336;28;20197;-79
2023/04/19 09:37:21;;;;;;;16.60;9.90;;;;;;;-145.69;100.00;52460.22;5073440;28;20229;-79
2023/04/19 09:39:49;;;;;;;17.02;9.40;;;;;;;-145.69;100.00;52472.13;5073142;28;20362;-78
2023/04/19 09:42:16;;;;;;;17.42;9.32;;;;;;;-145.69;100.00;52458.25;5073907;28;20202;-77
2023/04/19 09:44:55;;;;;;;15.80;8.90;;;;;;;-145.69;100.00;52472.13;5073646;28;20234;-77
2023/04/19 09:47:23;;;;;;;17.48;10.15;;;;;;;-145.69;100.00;52432.50;5073586;28;20580;-78
2023/04/19 09:50:04;;;;;;;20.00;10.10;;;;;;;-145.69;100.00;52489.94;5073359;28;20202;-76
2023/04/19 09:52:32;;;;;;;17.17;8.50;;;;;;;-145.69;100.00;52426.56;5073320;28;20198;-76
2023/04/19 09:55:01;;;;;;;14.73;9.23;;;;;;;-145.69;100.00;52464.19;5073359;28;20198;-79
2023/04/19 09:57:27;;;;;;;16.48;9.07;;;;;;;-145.69;100.00;52446.38;5073436;28;20194;-79
2023/04/19 09:59:54;;;;;;;17.80;8.70;;;;;;;-145.69;100.00;52446.38;5073171;28;20237;-80
2023/04/19 10:02:22;;;;;;;19.10;8.73;;;;;;;-145.69;100.00;52460.22;5073103;28;20209;-79
2023/04/19 10:04:48;;;;;;;14.20;7.95;;;;;;;-145.69;100.00;52491.91;5073140;28;20669;-79
2023/04/19 10:07:15;;;;;;;15.02;7.70;;;;;;;-145.69;100.00;52460.22;5073343;28;20195;-79
2023/04/19 10:09:42;;;;;;;13.30;8.07;;;;;;;-145.69;100.00;52460.22;5073181;28;20213;-80
2023/04/19 10:12:10;;;;;;;15.93;8.80;;;;;;;-145.69;100.00;52472.13;5073032;28;20693;-79
2023/04/19 10:14:39;;;;;;;18.17;8.85;;;;;;;-145.69;100.00;52472.13;5072541;28;20195;-79
2023/04/19 10:17:05;;;;;;;17.30;8.65;;;;;;;-145.69;100.00;52470.13;5073109;28;20240;-80
2023/04/19 10:19:37;;;;;;;20.20;10.27;;;;;;;-145.69;100.00;52493.91;5073255;28;20226;-79
2023/04/19 10:22:05;;;;;;;18.20;9.00;;;;;;;-145.69;100.00;52462.22;5072735;28;20198;-80
2023/04/19 10:24:33;;;;;;;16.00;8.65;;;;;;;-145.69;100.00;52452.31;5073054;28;20676;-80
2023/04/19 10:27:11;;;;;;;18.67;9.38;;;;;;;-145.69;100.00;52470.13;5072675;28;20654;-79
2023/04/19 10:29:58;;;;;;;18.80;10.07;;;;;;;-145.69;100.00;52444.38;5069322;28;20671;-79
2023/04/19 10:32:27;;;;;;;18.27;11.00;;;;;;;-145.69;100.00;52466.16;5072763;28;20299;-79
2023/04/19 10:34:54;;;;;;;17.88;10.55;;;;;;;-145.69;100.00;52478.06;5072701;28;20230;-79
2023/04/19 10:37:23;;;;;;;17.98;10.32;;;;;;;-145.69;100.00;52468.16;5072717;28;20244;-79
2023/04/19 10:39:50;;;;;;;17.42;9.48;;;;;;;-145.69;100.00;52470.13;5072596;28;20632;-80
2023/04/19 10:42:18;;;;;;;18.02;10.75;;;;;;;-145.69;100.00;52468.16;5072857;28;20260;-79
2023/04/19 10:45:18;;;;;;;18.02;9.90;;;;;;;-145.69;100.00;52448.34;5072905;28;20234;-79
2023/04/19 10:47:45;;;;;;;18.58;9.10;;;;;;;-145.69;100.00;52444.38;5072819;28;20194;-79
2023/04/19 10:50:11;;;;;;;16.40;8.55;;;;;;;-145.69;100.00;52470.13;5071964;28;20544;-79
2023/04/19 10:52:38;;;;;;;18.13;9.25;;;;;;;-145.69;100.00;52446.38;5072460;28;20554;-79
2023/04/19 10:55:07;;;;;;;17.92;9.60;;;;;;;-145.69;100.00;52464.19;5072255;28;20198;-80
2023/04/19 10:58:02;;;;;;;17.73;9.65;;;;;;;-145.69;100.00;52444.38;5072740;28;20225;-79
2023/04/19 11:00:30;;;;;;;17.98;9.32;;;;;;;-145.69;100.00;52470.13;5072303;28;20262;-79